sensor_id;sensor_type;location;lat;lon;timestamp;P1;durP1;ratioP1;P2;durP2;ratioP2
63284;SDS011;49409;55.708;37.522;2023-01-01T00:01:43;9.25;;;4.22;;
63284;SDS011;49409;55.708;37.522;2023-01-01T00:04:13;8.65;;;4.05;;
63284;SDS011;49409;55.708;37.522;2023-01-01T00:06:40;9.02;;;4.13;;
63284;SDS011;49409;55.708;37.522;2023-01-01T00:09:06;8.93;;;4.40;;
63284;SDS011;49409;55.708;37.522;2023-01-01T00:11:50;7.22;;;3.55;;
63284;SDS011;49409;55.708;37.522;2023-01-01T00:14:16;10.13;;;4.22;;
63284;SDS011;49409;55.708;37.522;2023-01-01T00:16:41;8.05;;;3.40;;
63284;SDS011;49409;55.708;37.522;2023-01-01T00:19:07;7.55;;;4.13;;
63284;SDS011;49409;55.708;37.522;2023-01-01T00:21:32;8.30;;;3.63;;
63284;SDS011;49409;55.708;37.522;2023-01-01T00:23:58;6.57;;;3.08;;
63284;SDS011;49409;55.708;37.522;2023-01-01T00:26:23;5.57;;;2.83;;
63284;SDS011;49409;55.708;37.522;2023-01-01T00:28:49;8.60;;;3.53;;
63284;SDS011;49409;55.708;37.522;2023-01-01T00:31:15;7.90;;;3.30;;
63284;SDS011;49409;55.708;37.522;2023-01-01T00:33:43;6.72;;;3.05;;
63284;SDS011;49409;55.708;37.522;2023-01-01T00:36:10;7.68;;;3.72;;
63284;SDS011;49409;55.708;37.522;2023-01-01T00:38:38;6.55;;;3.17;;
63284;SDS011;49409;55.708;37.522;2023-01-01T00:41:04;8.88;;;3.38;;
63284;SDS011;49409;55.708;37.522;2023-01-01T00:43:30;7.15;;;2.92;;
63284;SDS011;49409;55.708;37.522;2023-01-01T00:45:56;5.50;;;3.47;;
63284;SDS011;49409;55.708;37.522;2023-01-01T00:48:22;9.25;;;3.15;;
63284;SDS011;49409;55.708;37.522;2023-01-01T00:50:48;6.20;;;2.83;;
63284;SDS011;49409;55.708;37.522;2023-01-01T00:53:13;6.22;;;2.60;;
63284;SDS011;49409;55.708;37.522;2023-01-01T00:55:39;7.72;;;3.03;;
63284;SDS011;49409;55.708;37.522;2023-01-01T00:58:06;4.40;;;2.40;;
63284;SDS011;49409;55.708;37.522;2023-01-01T01:00:32;6.35;;;2.97;;
63284;SDS011;49409;55.708;37.522;2023-01-01T01:02:57;6.22;;;3.00;;
63284;SDS011;49409;55.708;37.522;2023-01-01T01:05:23;4.82;;;2.65;;
63284;SDS011;49409;55.708;37.522;2023-01-01T01:07:48;6.40;;;2.80;;
63284;SDS011;49409;55.708;37.522;2023-01-01T01:10:14;5.25;;;2.33;;
63284;SDS011;49409;55.708;37.522;2023-01-01T01:12:40;6.45;;;2.55;;
63284;SDS011;49409;55.708;37.522;2023-01-01T01:15:05;5.07;;;2.20;;
63284;SDS011;49409;55.708;37.522;2023-01-01T01:17:32;4.68;;;2.40;;
63284;SDS011;49409;55.708;37.522;2023-01-01T01:19:58;5.15;;;2.42;;
63284;SDS011;49409;55.708;37.522;2023-01-01T01:22:23;5.75;;;2.38;;
63284;SDS011;49409;55.708;37.522;2023-01-01T01:24:49;3.58;;;2.00;;
63284;SDS011;49409;55.708;37.522;2023-01-01T01:27:15;5.70;;;2.40;;
63284;SDS011;49409;55.708;37.522;2023-01-01T01:29:40;4.57;;;2.17;;
63284;SDS011;49409;55.708;37.522;2023-01-01T01:32:06;3.85;;;2.20;;
63284;SDS011;49409;55.708;37.522;2023-01-01T01:34:31;5.13;;;2.45;;
63284;SDS011;49409;55.708;37.522;2023-01-01T01:36:57;4.15;;;2.33;;
63284;SDS011;49409;55.708;37.522;2023-01-01T01:39:22;4.78;;;2.40;;
63284;SDS011;49409;55.708;37.522;2023-01-01T01:41:48;4.72;;;2.08;;
63284;SDS011;49409;55.708;37.522;2023-01-01T01:52:37;4.35;;;2.50;;
63284;SDS011;49409;55.708;37.522;2023-01-01T01:55:07;3.45;;;1.83;;
63284;SDS011;49409;55.708;37.522;2023-01-01T01:57:33;3.88;;;2.10;;
63284;SDS011;49409;55.708;37.522;2023-01-01T02:00:01;4.15;;;2.30;;
63284;SDS011;49409;55.708;37.522;2023-01-01T02:02:41;4.30;;;2.30;;
63284;SDS011;49409;55.708;37.522;2023-01-01T02:05:12;4.20;;;1.98;;
63284;SDS011;49409;55.708;37.522;2023-01-01T02:07:38;5.13;;;2.45;;
63284;SDS011;49409;55.708;37.522;2023-01-01T02:10:04;4.57;;;2.25;;
63284;SDS011;49409;55.708;37.522;2023-01-01T02:12:29;5.32;;;2.78;;
63284;SDS011;49409;55.708;37.522;2023-01-01T02:14:55;4.18;;;2.13;;
63284;SDS011;49409;55.708;37.522;2023-01-01T02:17:22;4.63;;;2.20;;
63284;SDS011;49409;55.708;37.522;2023-01-01T02:22:42;5.50;;;1.95;;
63284;SDS011;49409;55.708;37.522;2023-01-01T02:25:27;5.38;;;2.45;;
63284;SDS011;49409;55.708;37.522;2023-01-01T02:31:16;3.95;;;2.10;;
63284;SDS011;49409;55.708;37.522;2023-01-01T02:33:48;3.97;;;2.20;;
63284;SDS011;49409;55.708;37.522;2023-01-01T02:36:16;4.78;;;1.80;;
63284;SDS011;49409;55.708;37.522;2023-01-01T02:38:47;4.07;;;2.10;;
63284;SDS011;49409;55.708;37.522;2023-01-01T02:41:21;6.20;;;2.78;;
63284;SDS011;49409;55.708;37.522;2023-01-01T02:43:50;3.80;;;2.03;;
63284;SDS011;49409;55.708;37.522;2023-01-01T02:46:16;2.95;;;2.10;;
63284;SDS011;49409;55.708;37.522;2023-01-01T02:53:56;5.03;;;2.28;;
63284;SDS011;49409;55.708;37.522;2023-01-01T03:05:25;4.07;;;2.15;;
63284;SDS011;49409;55.708;37.522;2023-01-01T03:08:13;4.53;;;2.58;;
63284;SDS011;49409;55.708;37.522;2023-01-01T03:21:48;6.80;;;2.70;;
63284;SDS011;49409;55.708;37.522;2023-01-01T03:24:24;4.90;;;2.65;;
63284;SDS011;49409;55.708;37.522;2023-01-01T03:26:57;6.95;;;2.78;;
63284;SDS011;49409;55.708;37.522;2023-01-01T03:29:28;5.18;;;2.60;;
63284;SDS011;49409;55.708;37.522;2023-01-01T03:31:57;3.53;;;2.00;;
63284;SDS011;49409;55.708;37.522;2023-01-01T03:34:27;7.93;;;3.00;;
63284;SDS011;49409;55.708;37.522;2023-01-01T03:37:00;5.03;;;2.58;;
63284;SDS011;49409;55.708;37.522;2023-01-01T03:39:39;6.05;;;2.38;;
63284;SDS011;49409;55.708;37.522;2023-01-01T03:42:12;7.03;;;3.03;;
63284;SDS011;49409;55.708;37.522;2023-01-01T03:44:47;4.85;;;2.40;;
63284;SDS011;49409;55.708;37.522;2023-01-01T03:47:20;5.85;;;3.10;;
63284;SDS011;49409;55.708;37.522;2023-01-01T03:49:46;5.82;;;2.75;;
63284;SDS011;49409;55.708;37.522;2023-01-01T03:52:14;5.22;;;2.72;;
63284;SDS011;49409;55.708;37.522;2023-01-01T04:00:17;6.03;;;2.90;;
63284;SDS011;49409;55.708;37.522;2023-01-01T04:05:11;4.88;;;2.50;;
63284;SDS011;49409;55.708;37.522;2023-01-01T04:07:38;5.95;;;3.10;;
63284;SDS011;49409;55.708;37.522;2023-01-01T04:10:04;5.38;;;2.70;;
63284;SDS011;49409;55.708;37.522;2023-01-01T04:13:02;5.47;;;2.70;;
63284;SDS011;49409;55.708;37.522;2023-01-01T04:15:28;4.88;;;2.33;;
63284;SDS011;49409;55.708;37.522;2023-01-01T04:17:53;5.32;;;2.75;;
63284;SDS011;49409;55.708;37.522;2023-01-01T04:20:19;7.38;;;3.05;;
63284;SDS011;49409;55.708;37.522;2023-01-01T04:22:45;5.07;;;2.58;;
63284;SDS011;49409;55.708;37.522;2023-01-01T04:25:11;5.15;;;2.58;;
63284;SDS011;49409;55.708;37.522;2023-01-01T04:27:37;6.15;;;2.70;;
63284;SDS011;49409;55.708;37.522;2023-01-01T04:30:04;4.90;;;2.53;;
63284;SDS011;49409;55.708;37.522;2023-01-01T04:32:31;6.10;;;2.70;;
63284;SDS011;49409;55.708;37.522;2023-01-01T04:34:57;6.25;;;3.25;;
63284;SDS011;49409;55.708;37.522;2023-01-01T04:37:22;7.15;;;3.28;;
63284;SDS011;49409;55.708;37.522;2023-01-01T04:39:48;5.32;;;3.00;;
63284;SDS011;49409;55.708;37.522;2023-01-01T04:42:13;6.45;;;2.80;;
63284;SDS011;49409;55.708;37.522;2023-01-01T04:44:39;6.07;;;2.97;;
63284;SDS011;49409;55.708;37.522;2023-01-01T04:47:04;6.70;;;3.28;;
63284;SDS011;49409;55.708;37.522;2023-01-01T04:49:30;6.20;;;2.88;;
63284;SDS011;49409;55.708;37.522;2023-01-01T04:51:55;6.43;;;2.60;;
63284;SDS011;49409;55.708;37.522;2023-01-01T04:54:21;6.85;;;3.30;;
63284;SDS011;49409;55.708;37.522;2023-01-01T04:56:46;5.88;;;2.50;;
63284;SDS011;49409;55.708;37.522;2023-01-01T04:59:12;4.80;;;2.85;;
63284;SDS011;49409;55.708;37.522;2023-01-01T05:01:37;4.93;;;2.45;;
63284;SDS011;49409;55.708;37.522;2023-01-01T05:04:03;4.07;;;2.45;;
63284;SDS011;49409;55.708;37.522;2023-01-01T05:06:28;5.57;;;2.70;;
63284;SDS011;49409;55.708;37.522;2023-01-01T05:08:54;7.50;;;3.00;;
63284;SDS011;49409;55.708;37.522;2023-01-01T05:11:24;6.22;;;2.90;;
63284;SDS011;49409;55.708;37.522;2023-01-01T05:13:53;5.00;;;2.90;;
63284;SDS011;49409;55.708;37.522;2023-01-01T05:16:23;5.20;;;2.70;;
63284;SDS011;49409;55.708;37.522;2023-01-01T05:18:51;6.60;;;3.00;;
63284;SDS011;49409;55.708;37.522;2023-01-01T05:21:17;5.53;;;2.65;;
63284;SDS011;49409;55.708;37.522;2023-01-01T05:23:45;5.60;;;3.10;;
63284;SDS011;49409;55.708;37.522;2023-01-01T05:26:18;7.15;;;3.25;;
63284;SDS011;49409;55.708;37.522;2023-01-01T05:28:45;6.32;;;3.05;;
63284;SDS011;49409;55.708;37.522;2023-01-01T05:31:15;7.97;;;3.40;;
